createdAt,value
2023-03-06T00:00:32.412Z,73.95
2023-03-06T00:02:59.240Z,74.15
2023-03-06T00:05:26.336Z,74.35
2023-03-06T00:07:53.085Z,73.39
2023-03-06T00:10:22.588Z,74.30
2023-03-06T00:12:55.546Z,73.87
2023-03-06T00:15:23.531Z,74.73
2023-03-06T00:17:50.125Z,74.58
2023-03-06T00:20:17.183Z,75.10
2023-03-06T00:22:44.137Z,74.15
2023-03-06T00:25:15.372Z,74.59
2023-03-06T00:27:42.277Z,74.15
2023-03-06T00:30:11.859Z,74.23
2023-03-06T00:32:38.596Z,73.92
2023-03-06T00:35:05.543Z,74.14
2023-03-06T00:37:32.426Z,74.27
2023-03-06T00:39:59.071Z,74.29
2023-03-06T00:42:25.715Z,74.01
2023-03-06T00:44:52.430Z,74.26
2023-03-06T00:47:18.979Z,74.08
2023-03-06T00:49:46.029Z,73.99
2023-03-06T00:52:13.264Z,74.17
2023-03-06T00:54:40.364Z,73.88
2023-03-06T00:57:07.469Z,73.93
2023-03-06T00:59:34.212Z,73.57
2023-03-06T01:02:00.769Z,73.90
2023-03-06T01:04:27.645Z,74.16
2023-03-06T01:06:54.302Z,73.96
2023-03-06T01:09:20.861Z,73.70
2023-03-06T01:11:47.603Z,73.94
2023-03-06T01:14:14.170Z,73.57
2023-03-06T01:16:40.855Z,73.68
2023-03-06T01:19:07.473Z,74.42
2023-03-06T01:21:34.017Z,73.78
2023-03-06T01:24:00.556Z,73.65
2023-03-06T01:26:27.184Z,74.14
2023-03-06T01:28:53.906Z,74.17
2023-03-06T01:31:20.428Z,73.77
2023-03-06T01:33:46.993Z,73.60
2023-03-06T01:36:13.630Z,74.50
2023-03-06T01:38:40.262Z,74.17
2023-03-06T01:41:07.221Z,74.44
2023-03-06T01:43:36.217Z,74.47
2023-03-06T01:46:23.343Z,73.75
2023-03-06T01:48:56.877Z,74.45
2023-03-06T01:51:27.225Z,73.96
2023-03-06T01:53:55.215Z,73.83
2023-03-06T01:56:22.584Z,74.05
2023-03-06T01:58:49.701Z,74.11
2023-03-06T02:01:17.566Z,74.39
2023-03-06T02:03:44.406Z,73.74
2023-03-06T02:06:11.223Z,74.87
2023-03-06T02:08:38.572Z,73.79
2023-03-06T02:11:11.092Z,73.96
2023-03-06T02:13:39.153Z,74.64
2023-03-06T02:16:07.199Z,74.75
2023-03-06T02:18:34.669Z,74.35
2023-03-06T02:21:06.229Z,74.41
2023-03-06T02:23:41.135Z,74.13
2023-03-06T02:26:09.429Z,73.86
2023-03-06T02:28:36.223Z,74.41
2023-03-06T02:31:02.849Z,74.80
2023-03-06T02:33:30.181Z,75.13
2023-03-06T02:35:59.936Z,75.19
2023-03-06T02:38:40.116Z,74.34
2023-03-06T02:41:08.618Z,75.04
2023-03-06T02:43:39.726Z,74.95
2023-03-06T02:46:07.550Z,75.12
2023-03-06T02:48:34.790Z,75.02
2023-03-06T02:51:01.394Z,75.09
2023-03-06T02:53:28.028Z,75.24
2023-03-06T02:55:54.588Z,75.72
2023-03-06T02:58:21.266Z,75.56
2023-03-06T03:00:49.303Z,75.52
2023-03-06T03:03:16.152Z,75.92
2023-03-06T03:05:42.679Z,75.59
2023-03-06T03:08:09.283Z,76.21
2023-03-06T03:10:35.859Z,76.09
2023-03-06T03:13:02.694Z,76.38
2023-03-06T03:15:29.258Z,76.72
2023-03-06T03:17:55.796Z,76.07
2023-03-06T03:20:22.743Z,76.43
2023-03-06T03:22:53.884Z,75.87
2023-03-06T03:25:22.560Z,75.85
2023-03-06T03:27:49.136Z,75.87
2023-03-06T03:30:16.105Z,76.34
2023-03-06T03:32:43.175Z,76.72
2023-03-06T03:35:11.207Z,76.42
2023-03-06T03:37:38.460Z,76.32
2023-03-06T03:40:06.952Z,76.70
2023-03-06T03:42:34.007Z,76.62
2023-03-06T03:45:00.542Z,76.94
2023-03-06T03:47:27.125Z,77.10
2023-03-06T03:49:53.683Z,77.02
2023-03-06T03:52:20.241Z,76.74
2023-03-06T03:54:46.766Z,76.52
2023-03-06T03:57:13.363Z,76.71
2023-03-06T03:59:39.865Z,76.81
2023-03-06T04:02:06.428Z,76.66
2023-03-06T04:04:33.040Z,76.84
2023-03-06T04:07:00.536Z,76.07
2023-03-06T04:09:27.102Z,76.31
2023-03-06T04:11:53.593Z,76.75
2023-03-06T04:14:20.108Z,76.74
2023-03-06T04:16:46.628Z,76.77
2023-03-06T04:19:13.182Z,76.50
2023-03-06T04:21:39.809Z,75.81
2023-03-06T04:24:06.653Z,76.11
2023-03-06T04:26:33.208Z,75.76
2023-03-06T04:28:59.795Z,75.69
2023-03-06T04:31:26.339Z,75.45
2023-03-06T04:33:52.902Z,75.76
2023-03-06T04:36:31.900Z,74.73
2023-03-06T04:38:59.192Z,75.02
2023-03-06T04:41:26.214Z,74.76
2023-03-06T04:43:53.732Z,74.69
2023-03-06T04:46:20.317Z,74.39
2023-03-06T04:48:46.835Z,74.01
2023-03-06T04:51:14.322Z,74.69
2023-03-06T04:53:40.922Z,75.25
2023-03-06T04:56:07.770Z,74.57
2023-03-06T04:58:34.318Z,74.41
2023-03-06T05:01:00.973Z,74.97
2023-03-06T05:03:27.678Z,74.59
2023-03-06T05:05:54.291Z,74.72
2023-03-06T05:08:21.099Z,75.25
2023-03-06T05:10:56.039Z,75.44
2023-03-06T05:13:22.589Z,74.89
2023-03-06T05:15:49.193Z,74.24
2023-03-06T05:18:15.790Z,74.69
2023-03-06T05:20:42.767Z,74.81
2023-03-06T05:23:09.325Z,74.33
2023-03-06T05:25:38.160Z,74.14
2023-03-06T05:28:04.698Z,74.80
2023-03-06T05:30:31.275Z,73.89
2023-03-06T05:32:57.789Z,74.44
2023-03-06T05:35:24.770Z,74.71
2023-03-06T05:37:51.510Z,74.35
2023-03-06T05:40:19.204Z,74.66
2023-03-06T05:42:45.732Z,73.73
2023-03-06T05:45:12.277Z,74.30
2023-03-06T05:47:38.918Z,74.98
2023-03-06T05:50:07.982Z,74.10
2023-03-06T05:52:34.498Z,73.76
2023-03-06T05:55:01.053Z,74.75
2023-03-06T05:57:27.630Z,74.11
2023-03-06T05:59:54.263Z,73.64
2023-03-06T06:02:20.977Z,73.75
2023-03-06T06:04:47.771Z,73.90
2023-03-06T06:07:15.811Z,73.80
2023-03-06T06:09:45.378Z,73.38
2023-03-06T06:12:12.663Z,72.99
2023-03-06T06:14:39.220Z,72.63
2023-03-06T06:17:05.820Z,72.77
2023-03-06T06:19:32.760Z,73.07
2023-03-06T06:21:59.350Z,72.64
2023-03-06T06:24:26.757Z,73.02
2023-03-06T06:26:55.104Z,72.52
2023-03-06T06:29:22.075Z,72.24
2023-03-06T06:31:49.260Z,72.05
2023-03-06T06:34:16.212Z,71.69
2023-03-06T06:36:43.150Z,71.49
2023-03-06T06:39:12.934Z,71.94
2023-03-06T06:41:56.895Z,71.65
2023-03-06T06:44:25.761Z,71.20
2023-03-06T06:47:22.008Z,71.16
2023-03-06T06:49:39.640Z,70.54
2023-03-06T06:52:06.901Z,70.77
2023-03-06T06:54:34.792Z,70.37
2023-03-06T06:57:01.619Z,70.25
2023-03-06T06:59:28.158Z,69.96
2023-03-06T07:01:54.662Z,69.46
2023-03-06T07:04:21.309Z,70.39
2023-03-06T07:06:48.307Z,70.17
2023-03-06T07:09:14.884Z,69.85
2023-03-06T07:11:41.667Z,69.50
2023-03-06T07:14:08.269Z,68.89
2023-03-06T07:16:34.985Z,68.73
2023-03-06T07:19:01.653Z,68.85
2023-03-06T07:21:28.281Z,68.17
2023-03-06T07:23:57.220Z,68.27
2023-03-06T07:26:24.931Z,68.49
2023-03-06T07:28:53.730Z,68.89
2023-03-06T07:31:22.417Z,67.97
2023-03-06T07:33:50.227Z,67.77
2023-03-06T07:36:17.618Z,67.78
2023-03-06T07:38:44.286Z,67.19
2023-03-06T07:41:13.597Z,66.90
2023-03-06T07:43:41.258Z,67.25
2023-03-06T07:46:08.466Z,67.23
2023-03-06T07:48:35.820Z,66.99
2023-03-06T07:51:08.590Z,65.99
2023-03-06T07:53:35.694Z,65.94
2023-03-06T07:56:08.564Z,65.76
2023-03-06T07:58:36.717Z,65.94
2023-03-06T08:01:07.598Z,66.33
2023-03-06T08:03:34.513Z,65.95
2023-03-06T08:06:15.908Z,65.40
2023-03-06T08:08:44.395Z,65.33
2023-03-06T08:11:12.410Z,65.07
2023-03-06T08:13:39.681Z,64.86
2023-03-06T08:16:06.753Z,64.74
2023-03-06T08:18:34.186Z,65.46
2023-03-06T08:21:06.302Z,64.13
2023-03-06T08:23:33.773Z,64.33
2023-03-06T08:26:06.127Z,64.39
2023-03-06T08:28:32.747Z,63.68
2023-03-06T08:31:07.283Z,64.03
2023-03-06T08:33:33.928Z,64.06
2023-03-06T08:36:02.075Z,64.73
2023-03-06T08:38:28.938Z,64.75
2023-03-06T08:40:55.522Z,64.34
2023-03-06T08:43:22.161Z,64.12
2023-03-06T08:45:55.416Z,63.06
2023-03-06T08:48:22.213Z,63.01
2023-03-06T08:50:49.241Z,62.96
2023-03-06T08:53:15.903Z,63.94
2023-03-06T08:55:42.529Z,62.55
2023-03-06T08:58:09.671Z,62.39
2023-03-06T09:00:37.492Z,63.58
2023-03-06T09:03:05.250Z,63.61
2023-03-06T09:05:32.222Z,63.69
2023-03-06T09:07:58.825Z,64.37
2023-03-06T09:10:26.165Z,62.79
2023-03-06T09:12:55.007Z,62.88
2023-03-06T09:15:24.753Z,62.10
2023-03-06T09:17:51.827Z,61.97
2023-03-06T09:20:19.145Z,61.98
2023-03-06T09:22:45.971Z,61.86
2023-03-06T09:25:13.991Z,62.35
2023-03-06T09:27:40.981Z,61.21
2023-03-06T09:30:08.713Z,60.79
2023-03-06T09:32:35.339Z,60.74
2023-03-06T09:35:01.883Z,60.80
2023-03-06T09:37:28.443Z,61.49
2023-03-06T09:39:54.969Z,60.11
2023-03-06T09:42:23.698Z,59.95
2023-03-06T09:44:56.137Z,59.93
2023-03-06T09:47:25.369Z,59.93
2023-03-06T09:50:09.830Z,60.51
2023-03-06T09:52:39.934Z,60.33
2023-03-06T09:55:12.737Z,59.67
2023-03-06T09:57:52.519Z,59.28
2023-03-06T10:00:26.537Z,59.22
2023-03-06T10:03:02.923Z,58.72
2023-03-06T10:05:39.384Z,58.47
2023-03-06T10:08:27.132Z,58.13
2023-03-06T10:11:02.504Z,59.20
2023-03-06T10:13:32.033Z,58.41
2023-03-06T10:16:25.739Z,58.48
2023-03-06T10:18:53.491Z,60.14
2023-03-06T10:21:28.812Z,61.00
2023-03-06T10:24:07.288Z,61.37
2023-03-06T10:26:48.453Z,61.39
2023-03-06T10:30:00.116Z,61.88
2023-03-06T10:32:51.352Z,62.39
2023-03-06T10:35:30.373Z,62.94
2023-03-06T10:38:13.068Z,61.77
2023-03-06T10:41:07.420Z,61.73
2023-03-06T10:43:36.362Z,60.62
2023-03-06T10:46:05.063Z,61.13
2023-03-06T10:48:35.920Z,61.57
2023-03-06T10:51:24.412Z,61.30
2023-03-06T10:53:53.082Z,60.89
2023-03-06T10:56:29.973Z,60.21
2023-03-06T10:59:16.175Z,59.55
2023-03-06T11:01:51.345Z,60.48
2023-03-06T11:04:31.747Z,61.80
2023-03-06T11:07:28.509Z,62.76
2023-03-06T11:09:57.870Z,63.61
2023-03-06T11:12:38.641Z,63.48
2023-03-06T11:15:12.304Z,62.61
2023-03-06T11:17:50.190Z,64.06
2023-03-06T11:20:25.301Z,65.15
2023-03-06T11:23:02.173Z,67.18
2023-03-06T11:25:40.407Z,67.95
2023-03-06T11:28:23.794Z,69.37
2023-03-06T11:30:56.552Z,69.40
2023-03-06T11:33:30.876Z,70.13
2023-03-06T11:36:11.456Z,69.28
2023-03-06T11:38:51.959Z,69.01
2023-03-06T11:41:39.445Z,68.47
2023-03-06T11:44:27.244Z,68.75
2023-03-06T11:47:18.953Z,69.51
2023-03-06T11:50:24.144Z,71.14
2023-03-06T11:53:05.061Z,71.35
2023-03-06T11:56:02.083Z,71.20
2023-03-06T11:58:56.261Z,70.05
2023-03-06T12:01:47.485Z,68.07
2023-03-06T12:04:54.173Z,67.30
2023-03-06T12:07:33.790Z,66.70
2023-03-06T12:10:32.723Z,65.72
2023-03-06T12:13:11.264Z,66.10
2023-03-06T12:16:15.234Z,66.08
2023-03-06T12:18:53.175Z,65.59
2023-03-06T12:21:28.534Z,65.52
2023-03-06T12:24:16.779Z,65.93
2023-03-06T12:26:49.279Z,65.39
2023-03-06T12:29:25.724Z,65.18
2023-03-06T12:32:14.876Z,66.38
2023-03-06T12:35:06.454Z,67.22
2023-03-06T12:37:42.530Z,68.24
2023-03-06T12:40:21.337Z,68.17
2023-03-06T12:43:18.625Z,68.23
2023-03-06T12:45:46.209Z,68.04
2023-03-06T12:48:22.520Z,68.96
2023-03-06T12:50:50.148Z,69.89
2023-03-06T12:53:29.756Z,68.87
2023-03-06T12:55:58.424Z,69.36
2023-03-06T12:58:30.862Z,70.02
2023-03-06T13:01:04.178Z,70.96
2023-03-06T13:03:55.879Z,73.82
2023-03-06T13:06:34.200Z,76.15
2023-03-06T13:09:08.833Z,79.25
2023-03-06T13:11:44.493Z,80.76
2023-03-06T13:14:25.013Z,82.30
2023-03-06T13:16:51.860Z,82.78
2023-03-06T13:19:22.039Z,82.56
2023-03-06T13:21:54.647Z,82.54
2023-03-06T13:24:25.078Z,83.33
2023-03-06T13:27:09.504Z,82.83
2023-03-06T13:29:35.984Z,81.79
2023-03-06T13:32:02.520Z,81.50
2023-03-06T13:34:31.864Z,80.89
2023-03-06T13:37:13.774Z,79.55
2023-03-06T13:40:10.063Z,81.00
2023-03-06T13:42:57.626Z,79.52
2023-03-06T13:45:52.863Z,79.17
2023-03-06T13:48:44.886Z,79.84
2023-03-06T13:51:24.623Z,78.19
2023-03-06T13:54:15.683Z,77.35
2023-03-06T13:56:57.438Z,77.06
2023-03-06T13:59:29.959Z,75.19
2023-03-06T14:02:26.833Z,75.01
2023-03-06T14:04:58.663Z,74.04
2023-03-06T14:07:32.277Z,74.47
2023-03-06T14:10:14.938Z,72.36
2023-03-06T14:13:06.657Z,73.42
2023-03-06T14:15:44.570Z,72.77
2023-03-06T14:18:33.781Z,72.45
2023-03-06T14:21:05.532Z,73.17
2023-03-06T14:23:35.320Z,73.98
2023-03-06T14:26:20.174Z,73.51
2023-03-06T14:28:56.834Z,72.75
2023-03-06T14:31:26.793Z,73.18
2023-03-06T14:33:54.742Z,70.99
2023-03-06T14:36:24.573Z,70.58
2023-03-06T14:38:58.168Z,70.26
2023-03-06T14:41:26.295Z,70.21
2023-03-06T14:43:53.218Z,70.27
2023-03-06T14:46:22.352Z,70.47
2023-03-06T14:48:49.502Z,70.42
2023-03-06T14:51:28.243Z,71.16
2023-03-06T14:54:02.010Z,70.72
2023-03-06T14:56:30.075Z,69.74
2023-03-06T14:59:03.238Z,69.00
2023-03-06T15:01:45.773Z,69.72
2023-03-06T15:04:15.288Z,70.03
2023-03-06T15:06:44.212Z,69.51
2023-03-06T15:09:24.203Z,69.19
2023-03-06T15:12:02.866Z,68.82
2023-03-06T15:14:36.479Z,69.11
2023-03-06T15:17:42.747Z,68.82
2023-03-06T15:20:51.950Z,68.70
2023-03-06T15:23:23.096Z,69.01
2023-03-06T15:25:58.373Z,68.77
2023-03-06T15:28:33.207Z,69.15
2023-03-06T15:31:20.807Z,70.17
2023-03-06T15:34:07.879Z,69.62
2023-03-06T15:36:36.769Z,69.35
2023-03-06T15:39:35.352Z,69.62
2023-03-06T15:42:23.597Z,70.00
2023-03-06T15:44:55.513Z,70.08
2023-03-06T15:47:23.176Z,70.35
2023-03-06T15:49:52.579Z,70.41
2023-03-06T15:52:22.713Z,70.67
2023-03-06T15:54:49.784Z,70.78
2023-03-06T15:57:23.859Z,70.53
2023-03-06T15:59:51.225Z,71.38
2023-03-06T16:02:20.334Z,73.52
2023-03-06T16:04:47.534Z,77.01
2023-03-06T16:07:14.847Z,82.90
2023-03-06T16:09:42.303Z,85.37
2023-03-06T16:12:17.493Z,85.86
2023-03-06T16:14:45.345Z,87.17
2023-03-06T16:17:12.499Z,88.03
2023-03-06T16:19:39.539Z,88.47
2023-03-06T16:22:06.256Z,88.37
2023-03-06T16:24:33.050Z,88.76
2023-03-06T16:27:01.512Z,87.54
2023-03-06T16:29:29.407Z,88.55
2023-03-06T16:31:58.752Z,87.88
2023-03-06T16:34:25.657Z,88.24
2023-03-06T16:36:52.594Z,87.26
2023-03-06T16:39:22.095Z,86.75
2023-03-06T16:41:51.856Z,87.48
2023-03-06T16:44:18.780Z,87.60
2023-03-06T16:46:47.955Z,87.17
2023-03-06T16:49:20.606Z,86.91
2023-03-06T16:51:47.519Z,86.14
2023-03-06T16:54:14.037Z,86.92
2023-03-06T16:56:40.760Z,87.06
2023-03-06T16:59:07.349Z,86.23
2023-03-06T17:01:34.122Z,85.72
2023-03-06T17:04:00.900Z,86.60
2023-03-06T17:06:27.582Z,86.35
2023-03-06T17:08:54.373Z,86.51
2023-03-06T17:11:20.910Z,86.32
2023-03-06T17:13:48.237Z,86.81
2023-03-06T17:16:18.472Z,86.35
2023-03-06T17:18:45.725Z,85.92
2023-03-06T17:21:15.621Z,86.23
2023-03-06T17:23:42.863Z,86.88
2023-03-06T17:26:15.315Z,86.49
2023-03-06T17:28:42.368Z,87.05
2023-03-06T17:31:17.286Z,86.16
2023-03-06T17:33:44.450Z,86.30
2023-03-06T17:36:11.953Z,85.84
2023-03-06T17:38:38.539Z,85.50
2023-03-06T17:41:07.504Z,85.50
2023-03-06T17:43:34.095Z,85.61
2023-03-06T17:46:05.595Z,86.12
2023-03-06T17:48:32.344Z,86.85
2023-03-06T17:50:59.243Z,85.46
2023-03-06T17:53:26.932Z,85.23
2023-03-06T17:55:53.985Z,85.29
2023-03-06T17:58:20.544Z,85.05
2023-03-06T18:00:47.108Z,84.48
2023-03-06T18:03:13.644Z,84.29
2023-03-06T18:05:40.201Z,84.12
2023-03-06T18:08:08.316Z,85.24
2023-03-06T18:10:34.878Z,85.19
2023-03-06T18:13:01.401Z,84.01
2023-03-06T18:15:27.990Z,84.45
2023-03-06T18:17:56.647Z,85.02
2023-03-06T18:20:23.186Z,84.38
2023-03-06T18:22:49.704Z,82.89
2023-03-06T18:25:17.437Z,83.73
2023-03-06T18:27:43.994Z,82.72
2023-03-06T18:30:11.270Z,82.39
2023-03-06T18:32:37.897Z,82.47
2023-03-06T18:35:04.786Z,82.67
2023-03-06T18:37:31.369Z,82.38
2023-03-06T18:39:58.006Z,82.48
2023-03-06T18:42:24.733Z,83.23
2023-03-06T18:44:51.266Z,83.78
2023-03-06T18:47:17.845Z,83.12
2023-03-06T18:49:45.951Z,83.56
2023-03-06T18:52:12.942Z,83.62
2023-03-06T18:54:39.632Z,83.19
2023-03-06T18:57:06.239Z,83.75
2023-03-06T18:59:33.019Z,84.60
2023-03-06T19:01:59.649Z,84.37
2023-03-06T19:04:27.127Z,84.77
2023-03-06T19:06:54.853Z,84.53
2023-03-06T19:09:22.195Z,84.88
2023-03-06T19:11:49.223Z,84.69
2023-03-06T19:14:15.887Z,84.73
2023-03-06T19:16:42.626Z,84.04
2023-03-06T19:19:09.485Z,84.42
2023-03-06T19:21:36.035Z,83.98
2023-03-06T19:24:02.711Z,84.38
2023-03-06T19:26:29.458Z,84.47
2023-03-06T19:28:56.077Z,83.81
2023-03-06T19:31:25.712Z,84.45
2023-03-06T19:33:53.147Z,84.19
2023-03-06T19:36:23.595Z,84.18
2023-03-06T19:38:54.419Z,83.20
2023-03-06T19:41:20.983Z,82.88
2023-03-06T19:43:52.333Z,83.43
2023-03-06T19:46:20.250Z,82.79
2023-03-06T19:48:47.847Z,82.78
2023-03-06T19:51:14.755Z,83.50
2023-03-06T19:53:42.025Z,83.35
2023-03-06T19:56:12.224Z,82.67
2023-03-06T19:58:40.630Z,83.14
2023-03-06T20:01:10.070Z,83.34
2023-03-06T20:03:36.879Z,83.16
2023-03-06T20:06:06.611Z,83.00
2023-03-06T20:08:33.330Z,82.89
2023-03-06T20:10:59.893Z,83.51
2023-03-06T20:13:26.466Z,82.70
2023-03-06T20:15:53.191Z,83.25
2023-03-06T20:18:19.804Z,83.51
2023-03-06T20:20:57.199Z,82.90
2023-03-06T20:23:23.731Z,83.14
2023-03-06T20:25:50.295Z,84.00
2023-03-06T20:28:16.789Z,83.97
2023-03-06T20:30:43.327Z,84.52
2023-03-06T20:33:10.674Z,84.43
2023-03-06T20:35:42.376Z,85.28
2023-03-06T20:38:09.552Z,85.93
2023-03-06T20:40:40.446Z,86.08
2023-03-06T20:43:07.674Z,86.04
2023-03-06T20:45:34.932Z,86.92
2023-03-06T20:48:01.658Z,86.13
2023-03-06T20:50:28.242Z,86.62
2023-03-06T20:52:56.652Z,86.83
2023-03-06T20:55:23.215Z,87.26
2023-03-06T20:57:50.954Z,86.42
2023-03-06T21:00:18.877Z,85.30
2023-03-06T21:02:45.426Z,84.94
2023-03-06T21:05:12.040Z,83.61
2023-03-06T21:07:39.662Z,83.92
2023-03-06T21:10:06.915Z,83.71
2023-03-06T21:12:33.448Z,83.69
2023-03-06T21:15:00.029Z,83.93
2023-03-06T21:17:27.556Z,83.62
2023-03-06T21:19:54.092Z,83.89
2023-03-06T21:22:20.636Z,83.96
2023-03-06T21:24:47.179Z,83.69
2023-03-06T21:27:13.793Z,84.25
2023-03-06T21:29:40.356Z,84.09
2023-03-06T21:32:06.913Z,84.13
2023-03-06T21:34:33.442Z,84.00
2023-03-06T21:36:59.927Z,84.29
2023-03-06T21:39:26.453Z,84.95
2023-03-06T21:41:52.954Z,85.61
2023-03-06T21:44:19.738Z,85.48
2023-03-06T21:46:46.229Z,84.95
2023-03-06T21:49:12.790Z,85.00
2023-03-06T21:51:39.452Z,84.77
2023-03-06T21:54:06.518Z,84.65
2023-03-06T21:56:33.581Z,84.75
2023-03-06T21:59:00.279Z,85.45
2023-03-06T22:01:28.863Z,84.59
2023-03-06T22:03:57.399Z,84.42
2023-03-06T22:06:26.598Z,84.42
2023-03-06T22:08:55.872Z,84.03
2023-03-06T22:11:23.575Z,85.02
2023-03-06T22:13:50.282Z,84.12
2023-03-06T22:16:17.738Z,84.79
2023-03-06T22:18:46.139Z,84.73
2023-03-06T22:21:15.102Z,85.23
2023-03-06T22:23:42.050Z,84.48
2023-03-06T22:26:14.297Z,84.82
2023-03-06T22:28:42.055Z,84.85
2023-03-06T22:31:17.630Z,84.91
2023-03-06T22:33:44.626Z,84.92
2023-03-06T22:36:14.531Z,85.51
2023-03-06T22:38:43.501Z,84.92
2023-03-06T22:41:11.514Z,84.24
2023-03-06T22:43:38.105Z,84.70
2023-03-06T22:46:07.770Z,84.02
2023-03-06T22:48:34.826Z,84.09
2023-03-06T22:51:12.455Z,83.50
2023-03-06T22:53:41.028Z,83.04
2023-03-06T22:56:10.103Z,82.55
2023-03-06T22:58:37.505Z,82.17
2023-03-06T23:01:09.885Z,81.79
2023-03-06T23:03:38.134Z,81.72
2023-03-06T23:06:25.860Z,81.44
2023-03-06T23:08:58.473Z,80.90
2023-03-06T23:11:27.889Z,80.03
2023-03-06T23:13:56.558Z,81.03
2023-03-06T23:16:23.838Z,80.83
2023-03-06T23:18:52.412Z,80.29
2023-03-06T23:21:21.542Z,80.22
2023-03-06T23:23:49.852Z,80.08
2023-03-06T23:26:17.978Z,80.00
2023-03-06T23:28:44.814Z,79.88
2023-03-06T23:31:16.840Z,79.76
2023-03-06T23:33:43.563Z,80.38
2023-03-06T23:36:12.878Z,80.01
2023-03-06T23:38:40.478Z,79.67
2023-03-06T23:41:10.386Z,79.77
2023-03-06T23:43:37.175Z,80.18
2023-03-06T23:46:04.413Z,79.63
2023-03-06T23:48:31.818Z,80.65
2023-03-06T23:50:58.626Z,80.05
2023-03-06T23:53:25.543Z,80.64
2023-03-06T23:55:52.397Z,80.50
2023-03-06T23:58:19.657Z,80.52
